< < Back
Terminal Aerodrome Forecast


Current Version              Previous Versions:   1  2  3  4  5  6  7  8  9  

Terminal Aerodrome Forecast

829
FTUS42 KMLB 040527
TAFMCO
TAF
KMCO 040527Z 0406/0506 20007KT P6SM FEW120 OVC250
     FM041300 22007KT P6SM SCT030 SCT100 BKN250
     FM041900 23008KT P6SM VCTS SCT030CB BKN250 PROB30 0420/0422 4SM
      TSRA BKN030CB BKN060
     FM050000 20005KT P6SM SCT040 SCT250=



Latest METAR

965
SAUS70 KWBC 042000 RRB
MTRMCO
METAR KMCO 041953Z 29021G29KT 5SM +TSRA BR FEW030 BKN045CB BKN280 24/24
A3006 RMK AO2 PK WND 27035/1943 WSHFT 1939 RAB40 TSB45 SLP176
VIS W-N 2 FRQ LTGICCG SW-NW TS SW-NW MOV NE P0003
T02440239


USA.gov is the U.S. government's official web portal to all federal, state and local government web resources and services.